Home > Products > Valid Products > TAF

000
FTUS43 KDVN 272300
TAFCID
TAF
KCID 272320Z 2800/2824 VRB03KT P6SM BKN250
     FM281500 13008KT P6SM SCT250=



000
FTUS43 KDVN 272300
TAFBRL
TAF
KBRL 272320Z 2800/2824 VRB03KT P6SM BKN250
     FM281500 13006KT P6SM SCT200=



000
FTUS43 KDVN 272300
TAFMLI
TAF
KMLI 272320Z 2800/2824 VRB03KT P6SM SCT250
     FM281500 12006KT P6SM SCT250=



000
FTUS43 KDVN 272300
TAFDBQ
TAF
KDBQ 272320Z 2800/2824 VRB03KT P6SM SCT250
     FM281600 14007KT P6SM SCT250=



000
FTUS43 KDVN 272300
TAFDBQ
TAF
KDBQ 272320Z 2800/2824 VRB03KT P6SM SCT250
     FM281600 14007KT P6SM SCT250=



000
FTUS43 KDVN 272300
TAFBRL
TAF
KBRL 272320Z 2800/2824 VRB03KT P6SM BKN250
     FM281500 13006KT P6SM SCT200=



000
FTUS43 KDVN 272300
TAFCID
TAF
KCID 272320Z 2800/2824 VRB03KT P6SM BKN250
     FM281500 13008KT P6SM SCT250=



000
FTUS43 KDVN 272300
TAFMLI
TAF
KMLI 272320Z 2800/2824 VRB03KT P6SM SCT250
     FM281500 12006KT P6SM SCT250=



000
FTUS43 KDVN 272200 AAB
TAFCID
TAF AMD
KCID 272227Z 2722/2818 34007KT P6SM SCT250
     FM280200 VRB03KT P6SM BKN250
     FM281500 13008KT P6SM SCT200=



000
FTUS43 KDVN 272200 AAB
TAFCID
TAF AMD
KCID 272227Z 2722/2818 34007KT P6SM SCT250
     FM280200 VRB03KT P6SM BKN250
     FM281500 13008KT P6SM SCT200=



000
FTUS43 KDVN 272000 AAC
TAFBRL
TAF AMD
KBRL 272057Z 2721/2818 35012KT P6SM SKC
     FM280000 04005KT P6SM SKC
     FM280400 09004KT P6SM BKN200
     FM281500 13006KT P6SM SCT200=



000
FTUS43 KDVN 272000 AAB
TAFDBQ
TAF AMD
KDBQ 272056Z 2721/2818 02012KT P6SM SKC
     FM272300 02004KT P6SM SKC
     FM280400 08004KT P6SM FEW200
     FM280800 12004KT P6SM SCT200
     FM281600 14007KT P6SM SCT200=



000
FTUS43 KDVN 272000 AAB
TAFDBQ
TAF AMD
KDBQ 272056Z 2721/2818 02012KT P6SM SKC
     FM272300 02004KT P6SM SKC
     FM280400 08004KT P6SM FEW200
     FM280800 12004KT P6SM SCT200
     FM281600 14007KT P6SM SCT200=



000
FTUS43 KDVN 271900 AAA
TAFCID
TAF AMD
KCID 271958Z 2720/2818 34012KT P6SM SKC
     FM272300 04005KT P6SM SKC
     FM280300 08004KT P6SM SCT200
     FM280900 11004KT P6SM BKN200
     FM281500 13008KT P6SM SCT200=



000
FTUS43 KDVN 271900 AAB
TAFBRL
TAF AMD
KBRL 271957Z 2720/2818 01012KT P6SM SKC
     FM280000 04005KT P6SM SKC
     FM280400 09004KT P6SM BKN200
     FM281500 13006KT P6SM SCT200=



000
FTUS43 KDVN 271800 AAB
TAFMLI
TAF AMD
KMLI 271859Z 2719/2818 02012KT P6SM FEW035
     FM280000 04005KT P6SM SKC
     FM280400 09004KT P6SM SCT200
     FM281500 12006KT P6SM SCT200=



000
FTUS43 KDVN 271800 AAB
TAFMLI
TAF AMD
KMLI 271859Z 2719/2818 02012KT P6SM FEW035
     FM280000 04005KT P6SM SKC
     FM280400 09004KT P6SM SCT200
     FM281500 12006KT P6SM SCT200=



000
FTUS43 KDVN 271800 AAA
TAFDBQ
TAF AMD
KDBQ 271858Z 2719/2818 35012KT P6SM FEW035
     FM272300 02004KT P6SM SKC
     FM280400 08004KT P6SM FEW200
     FM280800 12004KT P6SM SCT200
     FM281600 14007KT P6SM SCT200=



000
FTUS43 KDVN 271800 AAA
TAFDBQ
TAF AMD
KDBQ 271858Z 2719/2818 35012KT P6SM FEW035
     FM272300 02004KT P6SM SKC
     FM280400 08004KT P6SM FEW200
     FM280800 12004KT P6SM SCT200
     FM281600 14007KT P6SM SCT200=



000
FTUS43 KDVN 271700 AAA
TAFBRL
TAF AMD
KBRL 271758Z 2718/2818 33012KT P6SM FEW035
     FM280000 04005KT P6SM SKC
     FM280400 09004KT P6SM BKN200
     FM281500 13006KT P6SM SCT200=



000
FTUS43 KDVN 271700 AAA
TAFBRL
TAF AMD
KBRL 271758Z 2718/2818 33012KT P6SM FEW035
     FM280000 04005KT P6SM SKC
     FM280400 09004KT P6SM BKN200
     FM281500 13006KT P6SM SCT200=



000
FTUS43 KDVN 271700 AAA
TAFMLI
TAF AMD
KMLI 271757Z 2718/2818 34012KT P6SM FEW035
     FM280000 04005KT P6SM SKC
     FM280400 09004KT P6SM SCT200
     FM281500 12006KT P6SM SCT200=



000
FTUS43 KDVN 271700 AAA
TAFMLI
TAF AMD
KMLI 271757Z 2718/2818 34012KT P6SM FEW035
     FM280000 04005KT P6SM SKC
     FM280400 09004KT P6SM SCT200
     FM281500 12006KT P6SM SCT200=



000
FTUS43 KDVN 271700
TAFBRL
TAF
KBRL 271720Z 2718/2818 01012KT P6SM FEW035
     FM280000 04005KT P6SM SKC
     FM280400 09004KT P6SM BKN200
     FM281500 13006KT P6SM SCT200=



000
FTUS43 KDVN 271700
TAFCID
TAF
KCID 271720Z 2718/2818 01012KT P6SM SKC
     FM272300 04005KT P6SM SKC
     FM280300 08004KT P6SM SCT200
     FM280900 11004KT P6SM BKN200
     FM281500 13008KT P6SM SCT200=



000
FTUS43 KDVN 271700
TAFDBQ
TAF
KDBQ 271720Z 2718/2818 02012KT P6SM FEW035
     FM272300 02004KT P6SM SKC
     FM280400 08004KT P6SM FEW200
     FM280800 12004KT P6SM SCT200
     FM281600 14007KT P6SM SCT200=



000
FTUS43 KDVN 271700
TAFMLI
TAF
KMLI 271720Z 2718/2818 02012KT P6SM FEW035
     FM280000 04005KT P6SM SKC
     FM280400 09004KT P6SM SCT200
     FM281500 12006KT P6SM SCT200=



000
FTUS43 KDVN 271600 AAA
TAFDBQ
TAF AMD
KDBQ 271658Z 2717/2812 02010G17KT P6SM SCT035
     FM280400 03004KT P6SM SCT150=



000
FTUS43 KDVN 271600 AAA
TAFDBQ
TAF AMD
KDBQ 271658Z 2717/2812 02010G17KT P6SM SCT035
     FM280400 03004KT P6SM SCT150=



000
FTUS43 KDVN 271400 AAA
TAFBRL
TAF AMD
KBRL 271401Z 2714/2812 02009KT P6SM SKC
     FM271600 01010KT P6SM SCT035
     FM280300 05004KT P6SM SCT100=



000
FTUS43 KDVN 271400 AAA
TAFBRL
TAF AMD
KBRL 271401Z 2714/2812 02009KT P6SM SKC
     FM271600 01010KT P6SM SCT035
     FM280300 05004KT P6SM SCT100=



000
FTUS43 KDVN 271400 AAA
TAFCID
TAF AMD
KCID 271401Z 2714/2812 02009KT P6SM SKC
     FM271600 36010KT P6SM SCT035
     FM280300 05004KT P6SM SCT150=



000
FTUS43 KDVN 271400 AAA
TAFCID
TAF AMD
KCID 271401Z 2714/2812 02009KT P6SM SKC
     FM271600 36010KT P6SM SCT035
     FM280300 05004KT P6SM SCT150=



000
FTUS43 KDVN 271100
TAFMLI
TAF
KMLI 271130Z 2712/2812 36006KT P6SM SKC
     FM271600 01009KT P6SM SCT035
     FM280400 04004KT P6SM SCT150=



000
FTUS43 KDVN 271100
TAFCID
TAF
KCID 271130Z 2712/2812 36009KT P6SM SKC
     FM271600 36010KT P6SM SCT035
     FM280300 05004KT P6SM SCT150=



000
FTUS43 KDVN 271100
TAFDBQ
TAF
KDBQ 271130Z 2712/2812 02009KT P6SM SKC
     FM271600 36010KT P6SM SCT035
     FM280400 03004KT P6SM SCT150=



000
FTUS43 KDVN 271100
TAFBRL
TAF
KBRL 271130Z 2712/2812 35009KT P6SM SKC
     FM271600 01010KT P6SM SCT035
     FM280300 05004KT P6SM SCT100=



000
FTUS43 KDVN 271100
TAFCID
TAF
KCID 271130Z 2712/2812 36009KT P6SM SKC
     FM271600 36010KT P6SM SCT035
     FM280300 05004KT P6SM SCT150=



000
FTUS43 KDVN 271100
TAFDBQ
TAF
KDBQ 271130Z 2712/2812 02009KT P6SM SKC
     FM271600 36010KT P6SM SCT035
     FM280400 03004KT P6SM SCT150=



000
FTUS43 KDVN 271100
TAFMLI
TAF
KMLI 271130Z 2712/2812 36006KT P6SM SKC
     FM271600 01009KT P6SM SCT035
     FM280400 04004KT P6SM SCT150=



000
FTUS43 KDVN 271100
TAFBRL
TAF
KBRL 271130Z 2712/2812 35009KT P6SM SKC
     FM271600 01010KT P6SM SCT035
     FM280300 05004KT P6SM SCT100=



000
FTUS43 KDVN 270500
TAFBRL
TAF
KBRL 270520Z 2706/2806 02010KT P6SM BKN040
     FM271100 34006KT P6SM SKC
     FM271600 36010KT P6SM SCT035=



000
FTUS43 KDVN 270500
TAFCID
TAF
KCID 270520Z 2706/2806 33007KT P6SM BKN040
     FM270900 01006KT P6SM SKC
     FM271500 36010KT P6SM SCT035=



000
FTUS43 KDVN 270500
TAFDBQ
TAF
KDBQ 270520Z 2706/2806 34010KT P6SM OVC040
     FM270800 02007KT P6SM SKC
     FM271500 36011KT P6SM SCT035=



000
FTUS43 KDVN 270500
TAFCID
TAF
KCID 270520Z 2706/2806 33007KT P6SM BKN040
     FM270900 01006KT P6SM SKC
     FM271500 36010KT P6SM SCT035=



000
FTUS43 KDVN 270500
TAFDBQ
TAF
KDBQ 270520Z 2706/2806 34010KT P6SM OVC040
     FM270800 02007KT P6SM SKC
     FM271500 36011KT P6SM SCT035=



000
FTUS43 KDVN 270500
TAFMLI
TAF
KMLI 270520Z 2706/2806 31007KT P6SM BKN040
     FM271000 34006KT P6SM SKC
     FM271600 36010KT P6SM SCT035=



000
FTUS43 KDVN 270500
TAFBRL
TAF
KBRL 270520Z 2706/2806 02010KT P6SM BKN040
     FM271100 34006KT P6SM SKC
     FM271600 36010KT P6SM SCT035=



000
FTUS43 KDVN 270500
TAFMLI
TAF
KMLI 270520Z 2706/2806 31007KT P6SM BKN040
     FM271000 34006KT P6SM SKC
     FM271600 36010KT P6SM SCT035=



000
FTUS43 KDVN 262300
TAFCID
TAF
KCID 262333Z 2700/2724 34013KT P6SM BKN200
     FM270300 33008KT P6SM BKN035
     FM271200 36009KT P6SM SCT035=



000
FTUS43 KDVN 262300
TAFBRL
TAF
KBRL 262333Z 2700/2724 32011KT P6SM BKN200
     FM270300 35008KT P6SM BKN040
     FM271500 36010KT P6SM SCT035=



000
FTUS43 KDVN 262300
TAFDBQ
TAF
KDBQ 262333Z 2700/2724 33010KT P6SM BKN035
     FM271200 01008KT P6SM SCT035=



000
FTUS43 KDVN 262300
TAFMLI
TAF
KMLI 262333Z 2700/2724 31011KT P6SM BKN150
     FM270400 33008KT P6SM BKN035
     FM271200 36009KT P6SM SCT035=



000
FTUS43 KDVN 262300
TAFMLI
TAF
KMLI 262333Z 2700/2724 31011KT P6SM BKN150
     FM270400 33008KT P6SM BKN035
     FM271200 36009KT P6SM SCT035=



000
FTUS43 KDVN 262300
TAFBRL
TAF
KBRL 262333Z 2700/2724 32011KT P6SM BKN200
     FM270300 35008KT P6SM BKN040
     FM271500 36010KT P6SM SCT035=



000
FTUS43 KDVN 262300
TAFDBQ
TAF
KDBQ 262333Z 2700/2724 33010KT P6SM BKN035
     FM271200 01008KT P6SM SCT035=



000
FTUS43 KDVN 262300
TAFCID
TAF
KCID 262333Z 2700/2724 34013KT P6SM BKN200
     FM270300 33008KT P6SM BKN035
     FM271200 36009KT P6SM SCT035=



000
FTUS43 KDVN 262000 AAB
TAFMLI
TAF AMD
KMLI 262057Z 2621/2718 31015G20KT P6SM SCT035
     FM270000 33010KT P6SM SCT035
     FM270400 33008KT P6SM BKN035
     FM271200 36009KT P6SM SCT035=



000
FTUS43 KDVN 262000 AAB
TAFMLI
TAF AMD
KMLI 262057Z 2621/2718 31015G20KT P6SM SCT035
     FM270000 33010KT P6SM SCT035
     FM270400 33008KT P6SM BKN035
     FM271200 36009KT P6SM SCT035=



000
FTUS43 KDVN 261900 AAA
TAFBRL
TAF AMD
KBRL 261957Z 2620/2718 32016G22KT P6SM SCT035
     FM270000 35010KT P6SM SCT035 SCT200
     FM270800 35008KT P6SM BKN035
     FM271500 36010KT P6SM SCT035=



000
FTUS43 KDVN 261800 AAA
TAFMLI
TAF AMD
KMLI 261858Z 2619/2718 33015G20KT P6SM SCT035
     FM270000 33010KT P6SM SCT035
     FM270400 33008KT P6SM BKN035
     FM271200 36009KT P6SM SCT035=



000
FTUS43 KDVN 261800 AAA
TAFMLI
TAF AMD
KMLI 261858Z 2619/2718 33015G20KT P6SM SCT035
     FM270000 33010KT P6SM SCT035
     FM270400 33008KT P6SM BKN035
     FM271200 36009KT P6SM SCT035=



000
FTUS43 KDVN 261700
TAFDBQ
TAF
KDBQ 261720Z 2618/2718 32014KT P6SM SCT035
     FM262000 33015G20KT P6SM BKN035
     FM262300 33011KT P6SM BKN035
     FM270500 35008KT P6SM BKN035
     FM271000 01007KT P6SM SCT035=



000
FTUS43 KDVN 261700
TAFMLI
TAF
KMLI 261720Z 2618/2718 31015G20KT P6SM SCT035
     FM270000 32010KT P6SM SCT035
     FM270400 33008KT P6SM BKN035
     FM271200 36009KT P6SM SCT035=



000
FTUS43 KDVN 261700
TAFBRL
TAF
KBRL 261720Z 2618/2718 33016G22KT P6SM SCT035
     FM270000 35010KT P6SM SCT035 SCT200
     FM270800 35008KT P6SM BKN035
     FM271500 36010KT P6SM SCT035=



000
FTUS43 KDVN 261700
TAFCID
TAF
KCID 261720Z 2618/2718 33018G26KT P6SM SCT035
     FM262300 33013KT P6SM SCT035 SCT200
     FM270300 34008KT P6SM BKN035
     FM271200 36009KT P6SM SCT035=



000
FTUS43 KDVN 261700
TAFMLI
TAF
KMLI 261720Z 2618/2718 31015G20KT P6SM SCT035
     FM270000 32010KT P6SM SCT035
     FM270400 33008KT P6SM BKN035
     FM271200 36009KT P6SM SCT035=



000
FTUS43 KDVN 261700
TAFBRL
TAF
KBRL 261720Z 2618/2718 33016G22KT P6SM SCT035
     FM270000 35010KT P6SM SCT035 SCT200
     FM270800 35008KT P6SM BKN035
     FM271500 36010KT P6SM SCT035=



000
FTUS43 KDVN 261700
TAFCID
TAF
KCID 261720Z 2618/2718 33018G26KT P6SM SCT035
     FM262300 33013KT P6SM SCT035 SCT200
     FM270300 34008KT P6SM BKN035
     FM271200 36009KT P6SM SCT035=



000
FTUS43 KDVN 261700
TAFDBQ
TAF
KDBQ 261720Z 2618/2718 32014KT P6SM SCT035
     FM262000 33015G20KT P6SM BKN035
     FM262300 33011KT P6SM BKN035
     FM270500 35008KT P6SM BKN035
     FM271000 01007KT P6SM SCT035=



000
FTUS43 KDVN 261500 AAB
TAFMLI
TAF AMD
KMLI 261557Z 2616/2712 32012G19KT P6SM SCT035
     FM270000 33008KT P6SM BKN200=



000
FTUS43 KDVN 261500 AAA
TAFDBQ
TAF AMD
KDBQ 261500Z 2615/2712 33015G23KT P6SM SCT025 BKN035
     FM262000 32015G23KT P6SM SCT050
     FM270000 33009KT P6SM SCT050=



000
FTUS43 KDVN 261500 AAA
TAFMLI
TAF AMD
KMLI 261500Z 2615/2712 32014G22KT P6SM SCT050
     FM270000 33008KT P6SM BKN200=



000
FTUS43 KDVN 261500 AAA
TAFMLI
TAF AMD
KMLI 261500Z 2615/2712 32014G22KT P6SM SCT050
     FM270000 33008KT P6SM BKN200=



000
FTUS43 KDVN 261400 AAA
TAFCID
TAF AMD
KCID 261459Z 2615/2712 33015G23KT P6SM FEW050
     FM262300 32014KT P6SM BKN150
     FM270300 34008KT P6SM BKN200=



000
FTUS43 KDVN 261100
TAFCID
TAF
KCID 261120Z 2612/2712 32010KT P6SM SCT200
     FM261600 32015G23KT P6SM FEW050
     FM262300 32014KT P6SM BKN150
     FM270300 34008KT P6SM BKN200=



000
FTUS43 KDVN 261100
TAFDBQ
TAF
KDBQ 261120Z 2612/2712 34012KT P6SM SCT200
     FM261600 33013G20KT P6SM BKN035
     FM262000 32015G23KT P6SM SCT050
     FM270000 33009KT P6SM SCT050=



000
FTUS43 KDVN 261100
TAFMLI
TAF
KMLI 261120Z 2612/2712 30009KT P6SM SCT200
     FM261600 32014G22KT P6SM SCT050
     FM270000 33008KT P6SM BKN200=



000
FTUS43 KDVN 261100
TAFBRL
TAF
KBRL 261120Z 2612/2712 33010KT P6SM SCT200
     FM261500 32013G20KT P6SM SKC
     FM270000 34008KT P6SM BKN200=



000
FTUS43 KDVN 260800 AAA
TAFDBQ
TAF AMD
KDBQ 260823Z 2608/2706 33013KT P6SM SCT200
     FM261500 33012KT P6SM SCT025
     FM261900 32014G21KT P6SM BKN035
     FM270000 33008KT P6SM BKN040=



000
FTUS43 KDVN 260800 AAA
TAFDBQ
TAF AMD
KDBQ 260823Z 2608/2706 33013KT P6SM SCT200
     FM261500 33012KT P6SM SCT025
     FM261900 32014G21KT P6SM BKN035
     FM270000 33008KT P6SM BKN040=



000
FTUS43 KDVN 260700 AAA
TAFCID
TAF AMD
KCID 260703Z 2607/2706 32008KT P6SM BKN200
     FM261600 32013G20KT P6SM SCT020 BKN035
     FM270000 33008KT P6SM BKN050=



000
FTUS43 KDVN 260600 AAA
TAFBRL
TAF AMD
KBRL 260623Z 2606/2706 34012G19KT P6SM SCT035
     FM260900 33010KT P6SM SCT030
     FM261500 32013G20KT P6SM SCT025
     FM270000 33008KT P6SM SCT040=



000
FTUS43 KDVN 260600 AAA
TAFBRL
TAF AMD
KBRL 260623Z 2606/2706 34012G19KT P6SM SCT035
     FM260900 33010KT P6SM SCT030
     FM261500 32013G20KT P6SM SCT025
     FM270000 33008KT P6SM SCT040=



000
FTUS43 KDVN 260600 AAA
TAFMLI
TAF AMD
KMLI 260622Z 2606/2706 32011KT P6SM SCT030
      TEMPO 2606/2609 BKN028
     FM261600 32013G20KT P6SM SCT020 BKN035
     FM270000 33008KT P6SM BKN050=



000
FTUS43 KDVN 260600 AAA
TAFMLI
TAF AMD
KMLI 260622Z 2606/2706 32011KT P6SM SCT030
      TEMPO 2606/2609 BKN028
     FM261600 32013G20KT P6SM SCT020 BKN035
     FM270000 33008KT P6SM BKN050=



000
FTUS43 KDVN 260500
TAFMLI
TAF
KMLI 260520Z 2606/2706 32011KT P6SM SCT035 BKN200
     FM261600 32013G20KT P6SM SCT020 BKN035
     FM270000 33008KT P6SM BKN050=



000
FTUS43 KDVN 260500
TAFBRL
TAF
KBRL 260520Z 2606/2706 33010KT P6SM SCT035 BKN150
     FM261500 32013G20KT P6SM SCT025 SCT200
     FM270000 33008KT P6SM SCT040=



000
FTUS43 KDVN 260500
TAFCID
TAF
KCID 260520Z 2606/2706 32012G19KT P6SM BKN035
     FM260900 31008KT P6SM BKN200
     FM261600 32013G20KT P6SM SCT020 BKN035
     FM270000 33008KT P6SM BKN050=



000
FTUS43 KDVN 260500
TAFDBQ
TAF
KDBQ 260520Z 2606/2706 33013KT P6SM BKN025
     FM260800 32008KT P6SM SCT030 BKN200
     FM261500 33012KT P6SM BKN025
     FM261900 32014G21KT P6SM BKN035
     FM270000 33008KT P6SM BKN040=



000
FTUS43 KDVN 260400 AAB
TAFMLI
TAF AMD
KMLI 260416Z 2604/2624 32014G22KT P6SM BKN035
     FM260900 31011KT P6SM SCT035 BKN200
     FM261500 32013G20KT P6SM SCT025 SCT200=



000
FTUS43 KDVN 260400 AAB
TAFMLI
TAF AMD
KMLI 260416Z 2604/2624 32014G22KT P6SM BKN035
     FM260900 31011KT P6SM SCT035 BKN200
     FM261500 32013G20KT P6SM SCT025 SCT200=



000
FTUS43 KDVN 260400 AAB
TAFCID
TAF AMD
KCID 260415Z 2604/2624 32013G22KT P6SM BKN035
     FM260800 31011KT P6SM SCT035 BKN200
     FM261500 32013G20KT P6SM SCT025 SCT200=



000
FTUS43 KDVN 260400 AAB
TAFDBQ
TAF AMD
KDBQ 260414Z 2604/2624 32015G25KT P6SM BKN025
     FM260800 31012KT P6SM SCT030 BKN200
     FM261500 33014G21KT P6SM BKN025=



000
FTUS43 KDVN 260300 AAA
TAFBRL
TAF AMD
KBRL 260343Z 2604/2624 34008KT P6SM SCT025 OVC080
     FM261500 32013G20KT P6SM SCT025 SCT200=



000
FTUS43 KDVN 260300 AAA
TAFDBQ
TAF AMD
KDBQ 260333Z 2604/2624 32012KT P6SM SCT025 BKN200
      TEMPO 2604/2608 BKN025
     FM261500 33014G21KT P6SM BKN020=



000
FTUS43 KDVN 260100 AAA
TAFMLI
TAF AMD
KMLI 260112Z 2601/2624 32010KT P6SM SCT030 BKN200
     FM260300 32008KT P6SM BKN035
     FM261500 32013G20KT P6SM SCT025 SCT200=



000
FTUS43 KDVN 260000 AAA
TAFCID
TAF AMD
KCID 260042Z 2601/2624 32011KT P6SM BKN035
     FM261500 32013G20KT P6SM SCT025 SCT200=



000
FTUS43 KDVN 260000 AAA
TAFCID
TAF AMD
KCID 260042Z 2601/2624 32011KT P6SM BKN035
     FM261500 32013G20KT P6SM SCT025 SCT200=



000
FTUS43 KDVN 252300
TAFCID
TAF
KCID 252333Z 2600/2624 31014KT P6SM BKN025
     FM260200 32010KT P6SM BKN035
     FM261500 32013G20KT P6SM SCT025 SCT200=



000
FTUS43 KDVN 252300
TAFBRL
TAF
KBRL 252333Z 2600/2624 30010KT P6SM SCT025 OVC100
      TEMPO 2601/2604 6SM -RA BR BKN035
     FM260600 34010KT P6SM BKN050
     FM261500 32013G20KT P6SM SCT025 SCT200=



000
FTUS43 KDVN 252300
TAFDBQ
TAF
KDBQ 252333Z 2600/2624 31011KT P6SM SCT025 BKN200
     FM261500 33014G21KT P6SM BKN020=



000
FTUS43 KDVN 252300
TAFMLI
TAF
KMLI 252333Z 2600/2624 31013KT P6SM BKN025
     FM260200 32010KT P6SM BKN035
     FM261500 32013G20KT P6SM SCT025 SCT200=



000
FTUS43 KDVN 252200 AAA
TAFDBQ
TAF AMD
KDBQ 252214Z 2522/2618 29017G27KT P6SM SCT025
     FM260000 31011KT P6SM SCT035 BKN200
     FM261500 33014KT P6SM SCT200=



000
FTUS43 KDVN 252200 AAA
TAFDBQ
TAF AMD
KDBQ 252214Z 2522/2618 29017G27KT P6SM SCT025
     FM260000 31011KT P6SM SCT035 BKN200
     FM261500 33014KT P6SM SCT200=



000
FTUS43 KDVN 252200 AAA
TAFMLI
TAF AMD
KMLI 252212Z 2522/2618 25009KT P6SM OVC025
     FM252300 29013KT P6SM BKN025
     FM260100 32008KT P6SM SCT025 BKN050
     FM261500 32012KT P6SM SCT200=



000
FTUS43 KDVN 252200 AAA
TAFMLI
TAF AMD
KMLI 252212Z 2522/2618 25009KT P6SM OVC025
     FM252300 29013KT P6SM BKN025
     FM260100 32008KT P6SM SCT025 BKN050
     FM261500 32012KT P6SM SCT200=



000
FTUS43 KDVN 252200 AAA
TAFBRL
TAF AMD
KBRL 252207Z 2522/2618 34010KT P6SM SCT018 BKN100
     FM260000 31010KT P6SM VCSH OVC025
      TEMPO 2601/2604 5SM -RA BR
     FM260600 34010KT P6SM BKN050=



000
FTUS43 KDVN 251700
TAFCID
TAF
KCID 251730Z 2518/2618 28014KT P6SM BKN015
     FM252000 30015G23KT P6SM BKN025
     FM252300 32011KT P6SM SCT035 BKN200
     FM261500 32014KT P6SM SCT200=



000
FTUS43 KDVN 251700
TAFDBQ
TAF
KDBQ 251730Z 2518/2618 26014KT P6SM OVC012
      TEMPO 2518/2519 6SM BR OVC008
     FM252100 29015G22KT P6SM BKN020
     FM260100 31011KT P6SM SCT035 BKN200
     FM261500 33014KT P6SM SCT200=



000
FTUS43 KDVN 251700
TAFBRL
TAF
KBRL 251730Z 2518/2618 28010KT P6SM OVC012
      TEMPO 2518/2520 6SM BR OVC008
     FM252300 31010KT P6SM VCSH OVC015
      TEMPO 2601/2604 5SM -RA BR
     FM260600 34010KT P6SM BKN050=



000
FTUS43 KDVN 251700
TAFMLI
TAF
KMLI 251730Z 2518/2618 27013KT P6SM OVC012
      TEMPO 2518/2519 6SM BR OVC008
     FM252100 28013G22KT P6SM BKN020
     FM260100 32008KT P6SM SCT025 BKN050
     FM261500 32012KT P6SM SCT200=



000
FTUS43 KDVN 251600 AAC
TAFBRL
TAF AMD
KBRL 251629Z 2517/2612 29010KT 5SM BR OVC007
      TEMPO 2516/2518 4SM BR OVC004
     FM251900 30012KT P6SM OVC015
     FM252200 31010G20KT P6SM VCSH OVC020
     FM260100 34012KT P6SM BKN050=



000
FTUS43 KDVN 251600 AAC
TAFDBQ
TAF AMD
KDBQ 251629Z 2517/2612 27013KT 6SM BR OVC008
      TEMPO 2516/2517 4SM BR OVC005
     FM251900 27015G22KT P6SM BKN020
     FM252100 29015G22KT P6SM BKN040
     FM260000 31011KT P6SM BKN200=



000
FTUS43 KDVN 251600 AAB
TAFMLI
TAF AMD
KMLI 251628Z 2516/2612 28013KT 5SM BR OVC008
     FM251800 28013KT P6SM OVC011
     FM252100 28013G22KT P6SM BKN020
     FM260000 31010KT P6SM BKN050=



000
FTUS43 KDVN 251600 AAB
TAFCID
TAF AMD
KCID 251626Z 2516/2612 28015KT P6SM OVC008
     FM251900 29015G23KT P6SM SCT020 BKN050
     FM252300 31014KT P6SM BKN200=



000
FTUS43 KDVN 251400 AAB
TAFBRL
TAF AMD
KBRL 251429Z 2515/2612 29010KT 4SM BR OVC006
      TEMPO 2514/2516 2SM BR OVC004
     FM251600 28012KT 5SM BR OVC008
     FM251900 30012KT P6SM OVC015
     FM252200 31010G20KT P6SM SCT020 BKN050 PROB30 2522/2601 -SHRA
      BKN025
     FM260100 34012KT P6SM BKN050=



000
FTUS43 KDVN 251400 AAB
TAFDBQ
TAF AMD
KDBQ 251429Z 2515/2612 27012KT 2SM BR OVC006
      TEMPO 2514/2516 1SM BR OVC004
     FM251600 27013KT 3SM BR OVC006
     FM251900 27015G22KT P6SM BKN020
     FM252100 29015G22KT P6SM BKN040
     FM260000 31011KT P6SM BKN200=



000
FTUS43 KDVN 251400 AAB
TAFDBQ
TAF AMD
KDBQ 251429Z 2515/2612 27012KT 2SM BR OVC006
      TEMPO 2514/2516 1SM BR OVC004
     FM251600 27013KT 3SM BR OVC006
     FM251900 27015G22KT P6SM BKN020
     FM252100 29015G22KT P6SM BKN040
     FM260000 31011KT P6SM BKN200=



000
FTUS43 KDVN 251400 AAA
TAFCID
TAF AMD
KCID 251429Z 2514/2612 28014KT 2SM BR OVC004
      TEMPO 2514/2516 1SM BR
     FM251600 28013KT 4SM BR OVC008
     FM251900 29015G23KT P6SM SCT020 BKN050
     FM252300 31014KT P6SM BKN200=



000
FTUS43 KDVN 251200 AAA
TAFBRL
TAF AMD
KBRL 251211Z 2512/2612 30010KT P6SM OVC008
      TEMPO 2515/2519 5SM BR OVC012
     FM251900 30012KT P6SM OVC015
     FM252200 31010G20KT P6SM SCT020 BKN050 PROB30 2522/2601 -SHRA
      BKN025
     FM260100 34012KT P6SM BKN050=



000
FTUS43 KDVN 251200 AAA
TAFBRL
TAF AMD
KBRL 251211Z 2512/2612 30010KT P6SM OVC008
      TEMPO 2515/2519 5SM BR OVC012
     FM251900 30012KT P6SM OVC015
     FM252200 31010G20KT P6SM SCT020 BKN050 PROB30 2522/2601 -SHRA
      BKN025
     FM260100 34012KT P6SM BKN050=



000
FTUS43 KDVN 251200 AAA
TAFMLI
TAF AMD
KMLI 251209Z 2512/2612 28012KT 6SM BR OVC008
     FM251600 28013KT 5SM BR OVC011
     FM252100 28013G22KT P6SM BKN020
     FM260000 31010KT P6SM BKN050=



000
FTUS43 KDVN 251200 AAA
TAFMLI
TAF AMD
KMLI 251209Z 2512/2612 28012KT 6SM BR OVC008
     FM251600 28013KT 5SM BR OVC011
     FM252100 28013G22KT P6SM BKN020
     FM260000 31010KT P6SM BKN050=



000
FTUS43 KDVN 251200 AAA
TAFDBQ
TAF AMD
KDBQ 251206Z 2512/2612 29009KT 3SM BR BKN006 OVC010
      TEMPO 2512/2514 2SM BR
     FM251400 27011KT 3SM BR OVC006
     FM251900 27015G22KT P6SM BKN020
     FM252100 29015G22KT P6SM BKN040
     FM260000 31011KT P6SM BKN200=



000
FTUS43 KDVN 251200 AAA
TAFDBQ
TAF AMD
KDBQ 251206Z 2512/2612 29009KT 3SM BR BKN006 OVC010
      TEMPO 2512/2514 2SM BR
     FM251400 27011KT 3SM BR OVC006
     FM251900 27015G22KT P6SM BKN020
     FM252100 29015G22KT P6SM BKN040
     FM260000 31011KT P6SM BKN200=



000
FTUS43 KDVN 251100
TAFMLI
TAF
KMLI 251120Z 2512/2612 28012KT 5SM BR OVC006
     FM251500 28013KT 4SM BR OVC011
     FM252100 28013G22KT P6SM BKN020
     FM260000 31010KT P6SM BKN050=



000
FTUS43 KDVN 251100
TAFBRL
TAF
KBRL 251120Z 2512/2612 30010KT P6SM OVC010
     FM251500 29009KT P6SM OVC012
     FM252200 31010G20KT P6SM SCT020 BKN050 PROB30 2522/2601 -SHRA
      BKN025
     FM260100 34012KT P6SM BKN050=



000
FTUS43 KDVN 251100
TAFDBQ
TAF
KDBQ 251120Z 2512/2612 29004KT 2SM BR OVC003
     FM251300 27009KT 3SM BR OVC004
     FM251900 27015G22KT P6SM BKN020
     FM252100 29015G22KT P6SM BKN040
     FM260000 31011KT P6SM BKN200=



000
FTUS43 KDVN 251100
TAFCID
TAF
KCID 251120Z 2512/2612 27008KT 3SM BR OVC004
      TEMPO 2512/2515 SCT004 OVC013
     FM251500 28012KT 4SM BR OVC005
     FM251900 29015G23KT P6SM SCT020 BKN050
     FM252300 31014KT P6SM BKN200=



000
FTUS43 KDVN 250900 AAB
TAFBRL
TAF AMD
KBRL 250958Z 2510/2606 30010KT P6SM OVC008
     FM251300 28009KT 5SM BR OVC006
     FM251500 24012KT 6SM BR OVC012
     FM252200 31010KT P6SM SCT020 BKN050=



000
FTUS43 KDVN 250900 AAB
TAFDBQ
TAF AMD
KDBQ 250930Z 2510/2606 33003KT 1 1/2SM BR OVC002
     FM251300 27005KT 1SM BR OVC003
     FM251500 25010KT 6SM BR OVC005
     FM252100 31014KT P6SM SCT020 BKN040=



000
FTUS43 KDVN 250800 AAA
TAFMLI
TAF AMD
KMLI 250800Z 2508/2606 VRB03KT 1SM BR OVC003
      TEMPO 2510/2513 2SM BR
     FM251300 VRB04KT 2SM BR OVC004
     FM251500 24007KT 3SM BR OVC005
     FM251800 27012KT 6SM BR OVC012
     FM252200 31010KT P6SM SCT020 BKN050=



000
FTUS43 KDVN 250800 AAA
TAFMLI
TAF AMD
KMLI 250800Z 2508/2606 VRB03KT 1SM BR OVC003
      TEMPO 2510/2513 2SM BR
     FM251300 VRB04KT 2SM BR OVC004
     FM251500 24007KT 3SM BR OVC005
     FM251800 27012KT 6SM BR OVC012
     FM252200 31010KT P6SM SCT020 BKN050=



000
FTUS43 KDVN 250700 AAB
TAFCID
TAF AMD
KCID 250758Z 2508/2606 33003KT 1 1/2SM BR OVC003
      TEMPO 2508/2512 1SM BR
     FM251500 24012KT 4SM BR OVC005
     FM252000 31012KT P6SM SCT020 BKN050=



000
FTUS43 KDVN 250700 AAA
TAFBRL
TAF AMD
KBRL 250711Z 2507/2606 30004KT 2SM BR OVC006
     FM250900 VRB04KT 1SM BR OVC003
      TEMPO 2509/2512 1/2SM FG
     FM251500 24012KT 6SM BR OVC012
     FM252200 31010KT P6SM SCT020 BKN050=



000
FTUS43 KDVN 250700 AAA
TAFBRL
TAF AMD
KBRL 250711Z 2507/2606 30004KT 2SM BR OVC006
     FM250900 VRB04KT 1SM BR OVC003
      TEMPO 2509/2512 1/2SM FG
     FM251500 24012KT 6SM BR OVC012
     FM252200 31010KT P6SM SCT020 BKN050=



000
FTUS43 KDVN 250700 AAA
TAFDBQ
TAF AMD
KDBQ 250710Z 2507/2606 04006KT 1SM -FZRASN BR OVC003
     FM250900 VRB04KT 2SM BR OVC004
      TEMPO 2509/2512 1/2SM FG VV002
     FM251500 24012KT 6SM BR BKN015
     FM252100 31014KT P6SM SCT020 BKN040=



000
FTUS43 KDVN 250700 AAA
TAFDBQ
TAF AMD
KDBQ 250710Z 2507/2606 04006KT 1SM -FZRASN BR OVC003
     FM250900 VRB04KT 2SM BR OVC004
      TEMPO 2509/2512 1/2SM FG VV002
     FM251500 24012KT 6SM BR BKN015
     FM252100 31014KT P6SM SCT020 BKN040=



000
FTUS43 KDVN 250600 AAA
TAFCID
TAF AMD
KCID 250608Z 2506/2606 04005KT 2SM BR VCSH OVC007
     FM250800 VRB04KT 2SM BR OVC004
     FM251500 24012KT 6SM BR BKN015
     FM252000 31012KT P6SM SCT020 BKN050=



000
FTUS43 KDVN 250600 AAA
TAFCID
TAF AMD
KCID 250608Z 2506/2606 04005KT 2SM BR VCSH OVC007
     FM250800 VRB04KT 2SM BR OVC004
     FM251500 24012KT 6SM BR BKN015
     FM252000 31012KT P6SM SCT020 BKN050=



000
FTUS43 KDVN 250500
TAFCID
TAF
KCID 250520Z 2506/2606 05005KT 4SM BR VCSH OVC006
     FM250800 VRB04KT 2SM BR OVC004
     FM251500 24012KT 6SM BR BKN015
     FM252000 31012KT P6SM SCT020 BKN050=



000
FTUS43 KDVN 250500
TAFBRL
TAF
KBRL 250520Z 2506/2606 VRB04KT 3SM BR OVC008
     FM250900 VRB04KT 1 1/2SM BR OVC004
     FM251500 24012KT 6SM BR OVC012
     FM252200 31010KT P6SM SCT020 BKN050=



000
FTUS43 KDVN 250500
TAFCID
TAF
KCID 250520Z 2506/2606 05005KT 4SM BR VCSH OVC006
     FM250800 VRB04KT 2SM BR OVC004
     FM251500 24012KT 6SM BR BKN015
     FM252000 31012KT P6SM SCT020 BKN050=



000
FTUS43 KDVN 250500
TAFDBQ
TAF
KDBQ 250520Z 2506/2606 06006KT 2SM BR OVC008
      TEMPO 2506/2509 1 1/2SM -FZRAPLSN BR
     FM251000 VRB04KT 2SM BR OVC004
     FM251500 24012KT 6SM BR BKN015
     FM252100 31014KT P6SM SCT020 BKN040=



000
FTUS43 KDVN 250500
TAFMLI
TAF
KMLI 250520Z 2506/2606 06006KT 4SM BR VCSH BKN008 OVC015
     FM250800 06005KT 3SM BR OVC006
     FM251100 VRB04KT 2SM BR OVC004
     FM251500 24012KT 6SM BR OVC012
     FM252200 31010KT P6SM SCT020 BKN050=



000
FTUS43 KDVN 250500
TAFDBQ
TAF
KDBQ 250520Z 2506/2606 06006KT 2SM BR OVC008
      TEMPO 2506/2509 1 1/2SM -FZRAPLSN BR
     FM251000 VRB04KT 2SM BR OVC004
     FM251500 24012KT 6SM BR BKN015
     FM252100 31014KT P6SM SCT020 BKN040=



000
FTUS43 KDVN 250500
TAFMLI
TAF
KMLI 250520Z 2506/2606 06006KT 4SM BR VCSH BKN008 OVC015
     FM250800 06005KT 3SM BR OVC006
     FM251100 VRB04KT 2SM BR OVC004
     FM251500 24012KT 6SM BR OVC012
     FM252200 31010KT P6SM SCT020 BKN050=



000
FTUS43 KDVN 250500
TAFBRL
TAF
KBRL 250520Z 2506/2606 VRB04KT 3SM BR OVC008
     FM250900 VRB04KT 1 1/2SM BR OVC004
     FM251500 24012KT 6SM BR OVC012
     FM252200 31010KT P6SM SCT020 BKN050=



000
FTUS43 KDVN 250400 AAB
TAFDBQ
TAF AMD
KDBQ 250431Z 2505/2524 09007KT 3SM -FZRAPL OVC015
      TEMPO 2505/2507 1 1/2SM -FZRAPL OVC008
     FM250700 VRB04KT 3SM BR OVC004
     FM251500 24012KT 6SM BR BKN015
     FM252100 31014KT P6SM SCT020 BKN040=



000
FTUS43 KDVN 250400 AAB
TAFDBQ
TAF AMD
KDBQ 250431Z 2505/2524 09007KT 3SM -FZRAPL OVC015
      TEMPO 2505/2507 1 1/2SM -FZRAPL OVC008
     FM250700 VRB04KT 3SM BR OVC004
     FM251500 24012KT 6SM BR BKN015
     FM252100 31014KT P6SM SCT020 BKN040=



    US Dept of Commerce
    National Oceanic and Atmospheric Administration
    National Weather Service
    1325 East West Highway
    Silver Spring, MD 20910
    Page Author: NWS Internet Services Team
Disclaimer
Information Quality
Credits
Glossary
Privacy Policy
Freedom of Information Act (FOIA)
About Us
Career Opportunities